createdAt,value
2022-07-29T00:02:02.750Z,17.52
2022-07-29T00:05:19.681Z,17.51
2022-07-29T00:08:35.983Z,17.47
2022-07-29T00:11:52.541Z,17.39
2022-07-29T00:15:08.997Z,17.34
2022-07-29T00:18:25.122Z,17.34
2022-07-29T00:21:41.257Z,17.30
2022-07-29T00:24:57.752Z,17.26
2022-07-29T00:28:14.270Z,17.26
2022-07-29T00:31:30.338Z,17.24
2022-07-29T00:35:00.889Z,17.18
2022-07-29T00:38:17.127Z,17.09
2022-07-29T00:41:33.222Z,17.03
2022-07-29T00:44:51.250Z,17.00
2022-07-29T00:48:08.309Z,16.96
2022-07-29T00:51:24.799Z,16.93
2022-07-29T00:54:46.592Z,16.91
2022-07-29T00:58:03.785Z,16.87
2022-07-29T01:01:22.733Z,16.82
2022-07-29T01:04:37.398Z,16.79
2022-07-29T01:07:54.603Z,16.74
2022-07-29T01:11:11.258Z,16.74
2022-07-29T01:14:29.773Z,16.78
2022-07-29T01:17:53.535Z,16.80
2022-07-29T01:21:44.590Z,16.79
2022-07-29T01:25:30.014Z,16.73
2022-07-29T01:29:10.144Z,16.70
2022-07-29T01:32:33.010Z,16.68
2022-07-29T01:35:51.708Z,16.68
2022-07-29T01:39:15.561Z,16.65
2022-07-29T01:42:36.309Z,16.64
2022-07-29T01:45:57.992Z,16.64
2022-07-29T01:49:20.229Z,16.61
2022-07-29T01:52:41.324Z,16.60
2022-07-29T01:55:59.132Z,16.56
2022-07-29T01:59:17.193Z,16.56
2022-07-29T02:02:35.151Z,16.52
2022-07-29T02:05:54.585Z,16.53
2022-07-29T02:09:11.461Z,16.50
2022-07-29T02:12:29.612Z,16.49
2022-07-29T02:15:47.949Z,16.44
2022-07-29T02:19:07.193Z,16.37
2022-07-29T02:22:21.673Z,16.38
2022-07-29T02:25:38.546Z,16.37
2022-07-29T02:28:56.435Z,16.37
2022-07-29T02:32:16.128Z,16.34
2022-07-29T02:35:34.823Z,16.27
2022-07-29T02:39:01.459Z,16.22
2022-07-29T02:42:21.857Z,16.20
2022-07-29T02:45:38.385Z,16.18
2022-07-29T02:48:58.614Z,16.13
2022-07-29T02:52:19.710Z,16.10
2022-07-29T02:55:40.479Z,16.06
2022-07-29T02:59:02.438Z,16.04
2022-07-29T03:02:20.430Z,16.00
2022-07-29T03:05:38.049Z,16.01
2022-07-29T03:08:56.142Z,16.01
2022-07-29T03:12:16.856Z,15.95
2022-07-29T03:15:34.379Z,15.95
2022-07-29T03:18:50.621Z,15.94
2022-07-29T03:22:08.429Z,15.95
2022-07-29T03:25:26.700Z,15.96
2022-07-29T03:28:42.868Z,15.92
2022-07-29T03:31:59.545Z,15.89
2022-07-29T03:35:18.258Z,15.89
2022-07-29T03:38:37.493Z,15.86
2022-07-29T03:41:58.323Z,15.85
2022-07-29T03:45:19.434Z,15.78
2022-07-29T03:48:37.483Z,15.76
2022-07-29T03:51:54.235Z,15.71
2022-07-29T03:55:12.212Z,15.70
2022-07-29T03:58:30.770Z,15.74
2022-07-29T04:01:50.146Z,15.77
2022-07-29T04:05:06.370Z,15.74
2022-07-29T04:08:22.406Z,15.72
2022-07-29T04:12:02.639Z,15.74
2022-07-29T04:14:56.804Z,15.82
2022-07-29T04:18:13.168Z,15.81
2022-07-29T04:21:29.255Z,15.82
2022-07-29T04:24:45.831Z,15.84
2022-07-29T04:28:07.681Z,15.87
2022-07-29T04:31:26.044Z,15.89
2022-07-29T04:34:43.156Z,15.97
2022-07-29T04:37:59.225Z,16.06
2022-07-29T04:41:15.910Z,16.10
2022-07-29T04:44:33.730Z,16.07
2022-07-29T04:47:51.625Z,16.08
2022-07-29T04:51:08.058Z,16.12
2022-07-29T04:54:24.050Z,16.18
2022-07-29T04:57:42.133Z,16.26
2022-07-29T05:00:58.435Z,16.32
2022-07-29T05:04:15.096Z,16.35
2022-07-29T05:07:31.367Z,16.43
2022-07-29T05:10:47.567Z,16.53
2022-07-29T05:14:03.542Z,16.58
2022-07-29T05:17:19.649Z,16.66
2022-07-29T05:20:37.410Z,16.79
2022-07-29T05:23:53.357Z,16.93
2022-07-29T05:27:09.596Z,17.08
2022-07-29T05:30:25.885Z,17.18
2022-07-29T05:33:42.086Z,17.28
2022-07-29T05:36:58.668Z,17.38
2022-07-29T05:40:17.012Z,17.52
2022-07-29T05:43:33.612Z,17.63
2022-07-29T05:46:49.881Z,17.76
2022-07-29T05:50:06.084Z,17.93
2022-07-29T05:53:22.723Z,18.14
2022-07-29T05:56:39.176Z,18.23
2022-07-29T05:59:55.856Z,18.30
2022-07-29T06:03:11.947Z,18.34
2022-07-29T06:06:28.184Z,18.39
2022-07-29T06:09:44.378Z,18.54
2022-07-29T06:13:00.629Z,18.58
2022-07-29T06:16:17.005Z,18.64
2022-07-29T06:19:35.326Z,18.73
2022-07-29T06:22:51.351Z,18.81
2022-07-29T06:26:08.776Z,18.93
2022-07-29T06:29:24.917Z,19.05
2022-07-29T06:32:43.175Z,19.20
2022-07-29T06:35:59.371Z,19.31
2022-07-29T06:39:19.263Z,19.46
2022-07-29T06:42:35.325Z,19.60
2022-07-29T06:45:53.211Z,19.65
2022-07-29T06:49:09.756Z,19.75
2022-07-29T06:52:27.987Z,19.86
2022-07-29T06:55:44.046Z,19.95
2022-07-29T06:59:00.351Z,20.00
2022-07-29T07:02:18.201Z,20.20
2022-07-29T07:05:34.589Z,20.27
2022-07-29T07:08:50.595Z,20.38
2022-07-29T07:12:07.262Z,20.41
2022-07-29T07:15:39.487Z,20.58
2022-07-29T07:18:42.370Z,20.64
2022-07-29T07:22:02.069Z,20.80
2022-07-29T07:25:21.070Z,21.05
2022-07-29T07:28:37.422Z,21.13
2022-07-29T07:31:56.339Z,21.14
2022-07-29T07:35:13.453Z,21.22
2022-07-29T07:38:29.850Z,21.36
2022-07-29T07:41:45.926Z,21.44
2022-07-29T07:45:13.571Z,21.55
2022-07-29T07:48:20.276Z,21.59
2022-07-29T07:51:36.499Z,21.77
2022-07-29T07:54:53.169Z,21.95
2022-07-29T07:58:09.235Z,22.33
2022-07-29T08:01:25.682Z,22.62
2022-07-29T08:04:42.678Z,22.87
2022-07-29T08:07:58.926Z,23.22
2022-07-29T08:11:15.075Z,23.41
2022-07-29T08:14:31.785Z,23.68
2022-07-29T08:17:47.991Z,24.03
2022-07-29T08:21:05.063Z,24.25
2022-07-29T08:24:43.323Z,24.44
2022-07-29T08:27:59.850Z,24.42
2022-07-29T08:31:16.602Z,24.52
2022-07-29T08:34:32.708Z,24.64
2022-07-29T08:37:49.328Z,24.75
2022-07-29T08:41:07.867Z,24.72
2022-07-29T08:44:30.591Z,25.07
2022-07-29T08:47:44.432Z,25.01
2022-07-29T08:51:04.410Z,25.34
2022-07-29T08:54:25.131Z,25.65
2022-07-29T08:57:54.241Z,25.86
2022-07-29T09:01:02.478Z,26.18
2022-07-29T09:04:22.872Z,26.36
2022-07-29T09:07:44.890Z,26.47
2022-07-29T09:11:03.824Z,26.53
2022-07-29T09:14:22.177Z,26.68
2022-07-29T09:17:59.069Z,26.47
2022-07-29T09:21:34.634Z,26.66
2022-07-29T09:24:57.285Z,26.48
2022-07-29T09:28:29.024Z,26.71
2022-07-29T09:31:55.313Z,26.76
2022-07-29T09:35:56.521Z,26.83
2022-07-29T09:39:17.739Z,26.88
2022-07-29T09:42:42.093Z,26.86
2022-07-29T09:45:58.951Z,27.05
2022-07-29T09:49:20.594Z,26.95
2022-07-29T09:52:37.784Z,26.96
2022-07-29T09:56:01.146Z,26.89
2022-07-29T09:59:18.666Z,26.74
2022-07-29T10:02:45.256Z,26.71
2022-07-29T10:06:17.764Z,26.64
2022-07-29T10:09:35.682Z,26.54
2022-07-29T10:13:07.103Z,26.46
2022-07-29T10:16:26.204Z,26.72
2022-07-29T10:19:44.259Z,26.71
2022-07-29T10:23:01.753Z,26.77
2022-07-29T10:26:19.020Z,26.89
2022-07-29T10:29:38.495Z,26.80
2022-07-29T10:33:22.222Z,26.75
2022-07-29T10:36:55.546Z,26.90
2022-07-29T10:40:27.109Z,26.89
2022-07-29T10:43:51.431Z,27.12
2022-07-29T10:47:08.397Z,27.11
2022-07-29T10:50:26.664Z,27.09
2022-07-29T10:54:02.660Z,27.00
2022-07-29T10:57:53.692Z,27.04
2022-07-29T11:01:03.975Z,26.92
2022-07-29T11:04:20.922Z,26.76
2022-07-29T11:07:46.012Z,26.51
2022-07-29T11:11:00.594Z,26.57
2022-07-29T11:14:19.358Z,26.53
2022-07-29T11:17:52.105Z,26.50
2022-07-29T11:21:02.233Z,26.56
2022-07-29T11:24:32.818Z,26.60
2022-07-29T11:27:55.121Z,26.58
2022-07-29T11:31:27.857Z,26.39
2022-07-29T11:34:45.503Z,26.32
2022-07-29T11:38:38.384Z,26.48
2022-07-29T11:42:00.510Z,26.67
2022-07-29T11:45:43.740Z,26.75
2022-07-29T11:48:40.493Z,26.68
2022-07-29T11:52:07.007Z,26.57
2022-07-29T11:55:32.309Z,26.46
2022-07-29T11:58:48.327Z,26.41
2022-07-29T12:02:36.373Z,26.32
2022-07-29T12:05:37.001Z,26.23
2022-07-29T12:08:50.437Z,26.23
2022-07-29T12:12:10.074Z,26.19
2022-07-29T12:15:46.030Z,26.13
2022-07-29T12:18:59.442Z,26.12
2022-07-29T12:22:16.021Z,26.11
2022-07-29T12:25:34.060Z,26.14
2022-07-29T12:28:54.796Z,26.14
2022-07-29T12:32:14.597Z,26.12
2022-07-29T12:35:45.771Z,26.07
2022-07-29T12:39:04.041Z,26.08
2022-07-29T12:42:27.069Z,26.05
2022-07-29T12:45:44.741Z,26.00
2022-07-29T12:49:04.109Z,26.00
2022-07-29T12:52:38.925Z,26.01
2022-07-29T12:55:58.299Z,26.05
2022-07-29T12:59:29.432Z,26.08
2022-07-29T13:02:49.501Z,26.12
2022-07-29T13:06:25.127Z,26.10
2022-07-29T13:09:50.661Z,26.08
2022-07-29T13:13:19.070Z,26.08
2022-07-29T13:16:38.486Z,26.03
2022-07-29T13:19:59.831Z,26.03
2022-07-29T13:23:22.141Z,26.01
2022-07-29T13:26:44.291Z,26.06
2022-07-29T13:30:02.533Z,26.11
2022-07-29T13:33:18.725Z,26.09
2022-07-29T13:36:38.709Z,26.09
2022-07-29T13:39:56.861Z,26.11
2022-07-29T13:43:16.216Z,26.15
2022-07-29T13:46:39.464Z,26.20
2022-07-29T13:49:58.624Z,26.20
2022-07-29T13:56:29.082Z,26.18
2022-07-29T13:59:54.305Z,26.18
2022-07-29T14:03:17.253Z,26.20
2022-07-29T14:25:15.127Z,26.05
2022-07-29T14:28:32.049Z,26.03
2022-07-29T14:31:51.252Z,26.05
2022-07-29T14:35:08.224Z,26.05
2022-07-29T14:38:27.309Z,26.06
2022-07-29T14:41:59.074Z,26.08
2022-07-29T14:48:16.650Z,26.02
2022-07-29T14:51:38.953Z,25.99
2022-07-29T14:55:19.851Z,25.95
2022-07-29T14:58:51.529Z,25.91
2022-07-29T15:05:41.355Z,25.84
2022-07-29T15:08:57.873Z,25.83
2022-07-29T15:12:20.517Z,25.80
2022-07-29T15:15:37.020Z,25.77
2022-07-29T15:18:54.116Z,25.74
2022-07-29T15:22:10.985Z,25.70
2022-07-29T15:25:28.146Z,25.68
2022-07-29T15:28:44.700Z,25.65
2022-07-29T15:32:02.493Z,25.63
2022-07-29T15:35:20.898Z,25.61
2022-07-29T15:38:41.760Z,25.60
2022-07-29T15:41:57.228Z,25.59
2022-07-29T15:45:15.896Z,25.59
2022-07-29T15:48:34.617Z,25.56
2022-07-29T15:51:51.469Z,25.56
2022-07-29T15:55:07.944Z,25.55
2022-07-29T15:58:24.234Z,25.54
2022-07-29T16:01:43.484Z,25.52
2022-07-29T16:04:59.789Z,25.51
2022-07-29T16:08:18.063Z,25.51
2022-07-29T16:11:34.352Z,25.49
2022-07-29T16:14:51.972Z,25.47
2022-07-29T16:18:09.722Z,25.47
2022-07-29T16:21:28.227Z,25.39
2022-07-29T16:24:42.997Z,25.26
2022-07-29T16:27:59.989Z,24.62
2022-07-29T16:31:16.932Z,23.93
2022-07-29T16:34:33.231Z,23.26
2022-07-29T16:38:23.488Z,22.83
2022-07-29T16:42:08.214Z,22.19
2022-07-29T16:45:54.725Z,21.96
2022-07-29T16:49:25.707Z,21.58
2022-07-29T16:53:24.405Z,21.31
2022-07-29T16:56:57.332Z,21.17
2022-07-29T17:00:27.177Z,20.93
2022-07-29T17:04:35.448Z,20.85
2022-07-29T17:18:29.333Z,19.98
2022-07-29T17:22:06.357Z,19.99
2022-07-29T17:25:39.896Z,19.84
2022-07-29T17:28:56.493Z,19.81
2022-07-29T17:32:29.323Z,19.66
2022-07-29T17:36:12.091Z,19.70
2022-07-29T17:39:38.355Z,19.67
2022-07-29T17:43:09.678Z,19.69
2022-07-29T17:46:31.939Z,19.60
2022-07-29T17:50:01.679Z,19.60
2022-07-29T17:53:32.865Z,19.54
2022-07-29T17:57:22.969Z,19.65
2022-07-29T18:00:46.319Z,19.64
2022-07-29T18:04:32.773Z,19.62
2022-07-29T18:07:49.681Z,19.64
2022-07-29T18:11:07.730Z,19.76
2022-07-29T18:14:24.289Z,19.87
2022-07-29T18:17:52.794Z,19.93
2022-07-29T18:20:59.451Z,19.94
2022-07-29T18:24:17.313Z,19.90
2022-07-29T18:27:36.280Z,19.82
2022-07-29T18:30:53.514Z,19.66
2022-07-29T18:34:09.920Z,19.59
2022-07-29T18:38:01.193Z,19.58
2022-07-29T18:40:48.832Z,19.54
2022-07-29T18:44:05.699Z,19.51
2022-07-29T18:47:22.530Z,19.49
2022-07-29T18:50:42.609Z,19.43
2022-07-29T18:54:00.317Z,19.30
2022-07-29T18:57:54.524Z,19.00
2022-07-29T19:00:36.377Z,19.17
2022-07-29T19:03:52.666Z,19.12
2022-07-29T19:07:09.061Z,19.07
2022-07-29T19:10:25.911Z,19.03
2022-07-29T19:13:45.609Z,19.12
2022-07-29T19:17:01.974Z,18.98
2022-07-29T19:20:21.093Z,18.98
2022-07-29T19:24:05.964Z,19.01
2022-07-29T19:27:00.429Z,19.05
2022-07-29T19:30:21.762Z,19.17
2022-07-29T19:33:40.722Z,19.23
2022-07-29T19:37:00.736Z,19.22
2022-07-29T19:40:19.387Z,19.16
2022-07-29T19:43:51.084Z,19.18
2022-07-29T19:46:54.554Z,19.26
2022-07-29T19:50:12.032Z,19.24
2022-07-29T19:53:28.285Z,19.32
2022-07-29T19:56:45.771Z,19.29
2022-07-29T20:00:05.381Z,19.23
2022-07-29T20:03:23.389Z,19.17
2022-07-29T20:06:40.156Z,19.10
2022-07-29T20:09:57.768Z,19.06
2022-07-29T20:13:14.601Z,19.11
2022-07-29T20:16:30.822Z,19.14
2022-07-29T20:19:48.467Z,19.21
2022-07-29T20:23:04.998Z,19.28
2022-07-29T20:26:21.298Z,19.28
2022-07-29T20:29:37.508Z,19.32
2022-07-29T20:32:56.908Z,19.34
2022-07-29T20:36:13.824Z,19.37
2022-07-29T20:39:31.218Z,19.38
2022-07-29T20:42:47.490Z,19.31
2022-07-29T20:46:03.651Z,19.33
2022-07-29T20:49:22.192Z,19.28
2022-07-29T20:52:40.272Z,19.28
2022-07-29T20:55:56.770Z,19.30
2022-07-29T20:59:14.720Z,19.31
2022-07-29T21:02:30.918Z,19.31
2022-07-29T21:05:48.885Z,19.31
2022-07-29T21:09:06.499Z,19.33
2022-07-29T21:12:23.510Z,19.31
2022-07-29T21:15:40.127Z,19.31
2022-07-29T21:18:57.707Z,19.30
2022-07-29T21:22:15.089Z,19.26
2022-07-29T21:25:32.633Z,19.23
2022-07-29T21:28:50.160Z,19.18
2022-07-29T21:32:06.824Z,19.17
2022-07-29T21:36:06.311Z,19.17
2022-07-29T21:38:42.676Z,19.13
2022-07-29T21:41:59.035Z,19.14
2022-07-29T21:45:16.861Z,19.10
2022-07-29T21:48:34.690Z,19.05
2022-07-29T21:51:50.813Z,19.07
2022-07-29T21:55:07.200Z,19.06
2022-07-29T21:58:25.651Z,19.09
2022-07-29T22:01:41.678Z,19.03
2022-07-29T22:04:57.982Z,19.04
2022-07-29T22:08:15.071Z,18.98
2022-07-29T22:11:31.278Z,18.80
2022-07-29T22:14:47.589Z,18.74
2022-07-29T22:18:03.981Z,18.65
2022-07-29T22:21:20.411Z,18.59
2022-07-29T22:24:36.631Z,18.58
2022-07-29T22:27:53.074Z,18.65
2022-07-29T22:31:09.351Z,18.71
2022-07-29T22:34:25.965Z,18.73
2022-07-29T22:37:44.468Z,18.72
2022-07-29T22:41:01.657Z,18.72
2022-07-29T22:44:18.925Z,18.60
2022-07-29T22:47:45.727Z,18.55
2022-07-29T22:50:53.282Z,18.65
2022-07-29T22:54:12.032Z,18.70
2022-07-29T22:57:28.496Z,18.69
2022-07-29T23:00:44.849Z,18.74
2022-07-29T23:04:03.346Z,18.74
2022-07-29T23:07:20.304Z,18.74
2022-07-29T23:10:36.914Z,18.63
2022-07-29T23:13:53.220Z,18.62
2022-07-29T23:17:09.390Z,18.62
2022-07-29T23:20:25.685Z,18.63
2022-07-29T23:23:42.023Z,18.65
2022-07-29T23:26:58.384Z,18.67
2022-07-29T23:30:18.260Z,18.67
2022-07-29T23:33:34.451Z,18.63
2022-07-29T23:36:50.766Z,18.66
2022-07-29T23:40:10.856Z,18.65
2022-07-29T23:43:24.962Z,18.67
2022-07-29T23:46:41.358Z,18.61
2022-07-29T23:49:57.744Z,18.61
2022-07-29T23:53:13.920Z,18.58
2022-07-29T23:56:30.388Z,18.55
2022-07-29T23:59:46.441Z,18.55
